Item Display Status Serial CT Sensor

Mooring Depth: 1 m

 

Deployed Sensor

  • Serial Number: 10442
  • NDBC Property Number: 36460
  • Start Date: 12/6/2018 (14:21:34 Z)
  • End Date: Currently Active
Water Temperature [°C]     6 entries per hour
Showing data from 7/19/2019 (15:30:00 Z) to 7/18/2019 (00:00:01 Z)
Previous Next [ Day | 3-Days | 7-Days ]
First Last
Prev [ Day | 3-Days | 7-Days ] Next
First Last

Start Time:     :
End Time:     :     
Time (in GMT) :00 :50 :40 :30 :20 :10
Previous Next [ Day | 3-Days | 7-Days ]
First Last
Prev [ Day | 3-Days | 7-Days ] Next
First Last


123 => good data
MM => data is determined as missing
-- => data not received/configured
Back to Top Back to Top
7/19/2019 16:00 to 15:10 -- -- -- 22.501 22.495 --
7/19/2019 15:00 to 14:10 -- 22.484 22.486 22.481 22.477 22.482
7/19/2019 14:00 to 13:10 22.473 -- 22.475 -- -- 22.483
7/19/2019 13:00 to 12:10 -- -- 22.496 -- -- --
7/19/2019 12:00 to 11:10 -- -- -- -- -- --
7/19/2019 11:00 to 10:10 -- -- -- -- 22.528 --
7/19/2019 10:00 to 9:10 -- 22.537 22.531 22.539 22.530 22.545
7/19/2019 09:00 to 8:10 -- -- 22.530 22.527 -- 22.520
7/19/2019 08:00 to 7:10 22.507 22.529 22.522 22.509 22.497 22.499
7/19/2019 07:00 to 6:10 22.496 22.490 22.495 22.499 22.498 22.496
7/19/2019 06:00 to 5:10 22.511 22.522 22.516 22.523 22.536 22.540
7/19/2019 05:00 to 4:10 22.547 22.549 22.554 22.557 22.562 22.568
7/19/2019 04:00 to 3:10 22.563 22.564 22.578 22.583 22.579 22.593
7/19/2019 03:00 to 2:10 22.597 22.610 22.607 22.589 22.599 22.572
7/19/2019 02:00 to 1:10 22.549 22.557 22.584 22.589 22.570 22.586
7/19/2019 01:00 to 0:10 22.594 22.563 22.585 22.566 22.532 22.554
7/19/2019 00:00 to 23:10 22.537 22.505 22.497 22.491 22.535 22.557
7/18/2019 23:00 to 22:10 22.586 22.614 22.636 22.677 22.686 22.751
7/18/2019 22:00 to 21:10 22.760 22.743 22.757 22.717 22.706 22.734
7/18/2019 21:00 to 20:10 22.749 22.711 22.669 22.757 22.716 22.710
7/18/2019 20:00 to 19:10 22.704 22.683 22.681 22.693 22.686 22.668
7/18/2019 19:00 to 18:10 22.662 22.651 22.629 22.653 22.650 22.642
7/18/2019 18:00 to 17:10 22.629 22.661 22.660 22.663 22.653 22.654
7/18/2019 17:00 to 16:10 22.659 22.662 22.673 22.671 22.672 22.669
7/18/2019 16:00 to 15:10 22.671 22.678 22.687 22.693 22.692 22.697
7/18/2019 15:00 to 14:10 22.707 22.715 22.719 22.724 22.725 22.729
7/18/2019 14:00 to 13:10 22.730 22.739 22.729 22.738 22.744 22.752
7/18/2019 13:00 to 12:10 22.759 22.771 22.779 22.783 22.788 22.800
7/18/2019 12:00 to 11:10 22.804 22.803 22.801 22.797 22.803 22.812
7/18/2019 11:00 to 10:10 22.815 22.807 22.812 22.794 22.795 22.805
7/18/2019 10:00 to 9:10 22.807 22.808 22.797 22.814 22.820 22.832
7/18/2019 09:00 to 8:10 22.836 22.832 22.852 22.847 22.856 --
7/18/2019 08:00 to 7:10 22.861 22.859 22.868 22.873 22.882 22.892
7/18/2019 07:00 to 6:10 -- 22.914 22.917 22.924 22.934 22.950
7/18/2019 06:00 to 5:10 22.952 22.965 22.969 22.969 22.990 22.995
7/18/2019 05:00 to 4:10 22.998 23.012 23.033 23.032 23.044 23.045
7/18/2019 04:00 to 3:10 23.042 23.066 23.068 23.082 23.079 23.101
7/18/2019 03:00 to 2:10 23.099 23.113 23.116 23.118 23.122 23.125
7/18/2019 02:00 to 1:10 23.124 23.110 23.111 23.104 23.113 23.138
7/18/2019 01:00 to 0:10 23.131 23.143 23.133 23.143 23.148 23.181

 

 

 

Conductivity [S/m]     6 entries per hour
Showing data from 7/19/2019 (15:30:00 Z) to 7/18/2019 (00:00:01 Z)
Previous Next [ Day | 3-Days | 7-Days ]
First Last
Prev [ Day | 3-Days | 7-Days ] Next
First Last

Start Time:     :
End Time:     :     
Time (in GMT) :00 :50 :40 :30 :20 :10
Previous Next [ Day | 3-Days | 7-Days ]
First Last
Prev [ Day | 3-Days | 7-Days ] Next
First Last


123 => good data
MM => data is determined as missing
-- => data not received/configured
Back to Top Back to Top
7/19/2019 16:00 to 15:10 -- -- -- 5.05094 5.05038 --
7/19/2019 15:00 to 14:10 -- 5.04921 5.04941 5.04885 5.04831 5.04900
7/19/2019 14:00 to 13:10 5.04803 -- 5.04817 -- -- 5.04917
7/19/2019 13:00 to 12:10 -- -- 5.05012 -- -- --
7/19/2019 12:00 to 11:10 -- -- -- -- -- --
7/19/2019 11:00 to 10:10 -- -- -- -- 5.05403 --
7/19/2019 10:00 to 9:10 -- 5.05491 5.05531 5.05529 5.05415 5.05585
7/19/2019 09:00 to 8:10 -- -- 5.05432 5.05410 -- 5.05320
7/19/2019 08:00 to 7:10 5.05177 5.05397 5.05315 5.05184 5.05085 5.05039
7/19/2019 07:00 to 6:10 5.05017 5.04972 5.05033 5.05052 5.05030 5.05011
7/19/2019 06:00 to 5:10 5.05152 5.05266 5.05231 5.05274 5.05448 5.05483
7/19/2019 05:00 to 4:10 5.05558 5.05585 5.05635 5.05644 5.05703 5.05770
7/19/2019 04:00 to 3:10 5.05709 5.05736 5.05880 5.05924 5.05868 5.06037
7/19/2019 03:00 to 2:10 5.06057 5.06179 5.06158 5.05983 5.06020 5.05716
7/19/2019 02:00 to 1:10 5.05424 5.05486 5.05754 5.05765 5.05487 5.05673
7/19/2019 01:00 to 0:10 5.05740 5.05333 5.05501 5.05330 5.04751 5.04987
7/19/2019 00:00 to 23:10 5.04598 5.04215 5.04140 5.04074 5.04506 5.04728
7/18/2019 23:00 to 22:10 5.05046 5.05274 5.05585 5.06007 5.06132 5.06856
7/18/2019 22:00 to 21:10 5.06949 5.06724 5.06910 5.06385 5.06174 5.06548
7/18/2019 21:00 to 20:10 5.06717 5.06253 5.05888 5.06736 5.06358 5.06193
7/18/2019 20:00 to 19:10 5.06194 5.05919 5.06031 5.06064 5.06017 5.05795
7/18/2019 19:00 to 18:10 5.05753 5.05629 5.05334 5.05660 5.05683 5.05520
7/18/2019 18:00 to 17:10 5.05408 5.05708 5.05708 5.05738 5.05618 5.05636
7/18/2019 17:00 to 16:10 5.05694 5.05752 5.05847 5.05821 5.05849 5.05826
7/18/2019 16:00 to 15:10 5.05836 5.05898 5.05990 5.06048 5.06046 5.06113
7/18/2019 15:00 to 14:10 5.06212 5.06303 5.06342 5.06391 5.06412 5.06440
7/18/2019 14:00 to 13:10 5.06464 5.06539 5.06451 5.06530 5.06593 5.06703
7/18/2019 13:00 to 12:10 5.06758 5.06907 5.06983 5.07019 5.07100 5.07228
7/18/2019 12:00 to 11:10 5.07255 5.07202 5.07171 5.07094 5.07120 5.07207
7/18/2019 11:00 to 10:10 5.07225 5.07092 5.07124 5.06789 5.06780 5.06878
7/18/2019 10:00 to 9:10 5.06909 5.06866 5.06698 5.06866 5.06902 5.07022
7/18/2019 09:00 to 8:10 5.07060 5.06996 5.07194 5.07130 5.07212 5.07237
7/18/2019 08:00 to 7:10 5.07231 5.07173 5.07272 5.07311 5.07389 5.07498
7/18/2019 07:00 to 6:10 5.07605 5.07722 5.07760 5.07837 5.07949 5.08092
7/18/2019 06:00 to 5:10 5.08128 5.08250 5.08297 5.08367 5.08538 5.08572
7/18/2019 05:00 to 4:10 5.08646 5.08800 5.08964 5.08975 5.09106 5.09120
7/18/2019 04:00 to 3:10 5.09090 5.09313 5.09336 5.09473 5.09443 5.09640
7/18/2019 03:00 to 2:10 5.09615 5.09748 5.09749 5.09743 5.09808 5.09721
7/18/2019 02:00 to 1:10 5.09649 5.09386 5.09382 5.09280 5.09318 5.09559
7/18/2019 01:00 to 0:10 5.09458 5.09574 5.09437 5.09516 5.09547 5.09880

 

 

 

Salinity [psu]     6 entries per hour
Showing data from 7/19/2019 (15:30:00 Z) to 7/18/2019 (00:00:01 Z)
Previous Next [ Day | 3-Days | 7-Days ]
First Last
Prev [ Day | 3-Days | 7-Days ] Next
First Last

Start Time:     :
End Time:     :     
Time (in GMT) :00 :50 :40 :30 :20 :10
Previous Next [ Day | 3-Days | 7-Days ]
First Last
Prev [ Day | 3-Days | 7-Days ] Next
First Last


123 => good data
MM => data is determined as missing
-- => data not received/configured
Back to Top Back to Top
7/19/2019 16:00 to 15:10 -- -- -- 35.02 35.02 --
7/19/2019 15:00 to 14:10 -- 35.02 35.02 35.02 35.02 35.02
7/19/2019 14:00 to 13:10 35.02 -- 35.02 -- -- 35.02
7/19/2019 13:00 to 12:10 -- -- 35.02 -- -- --
7/19/2019 12:00 to 11:10 -- -- -- -- -- --
7/19/2019 11:00 to 10:10 -- -- -- -- 35.03 --
7/19/2019 10:00 to 9:10 -- 35.03 35.03 35.03 35.03 35.03
7/19/2019 09:00 to 8:10 -- -- 35.03 35.03 -- 35.03
7/19/2019 08:00 to 7:10 35.03 35.03 35.02 35.03 35.03 35.02
7/19/2019 07:00 to 6:10 35.02 35.02 35.02 35.02 35.02 35.02
7/19/2019 06:00 to 5:10 35.02 35.02 35.02 35.02 35.02 35.02
7/19/2019 05:00 to 4:10 35.02 35.02 35.02 35.02 35.02 35.02
7/19/2019 04:00 to 3:10 35.02 35.02 35.02 35.02 35.02 35.02
7/19/2019 03:00 to 2:10 35.02 35.02 35.02 35.02 35.02 35.02
7/19/2019 02:00 to 1:10 35.01 35.01 35.01 35.01 35.00 35.00
7/19/2019 01:00 to 0:10 35.00 34.99 34.99 34.99 34.97 34.97
7/19/2019 00:00 to 23:10 34.96 34.95 34.95 34.95 34.95 34.95
7/18/2019 23:00 to 22:10 34.95 34.95 34.95 34.95 34.96 34.96
7/18/2019 22:00 to 21:10 34.96 34.96 34.96 34.95 34.94 34.95
7/18/2019 21:00 to 20:10 34.95 34.95 34.95 34.95 34.95 34.94
7/18/2019 20:00 to 19:10 34.95 34.94 34.95 34.95 34.95 34.94
7/18/2019 19:00 to 18:10 34.95 34.95 34.94 34.95 34.95 34.94
7/18/2019 18:00 to 17:10 34.95 34.94 34.94 34.94 34.94 34.94
7/18/2019 17:00 to 16:10 34.94 34.95 34.95 34.94 34.95 34.95
7/18/2019 16:00 to 15:10 34.95 34.95 34.95 34.94 34.95 34.95
7/18/2019 15:00 to 14:10 34.95 34.95 34.95 34.95 34.95 34.95
7/18/2019 14:00 to 13:10 34.95 34.95 34.95 34.95 34.95 34.95
7/18/2019 13:00 to 12:10 34.95 34.95 34.95 34.95 34.95 34.95
7/18/2019 12:00 to 11:10 34.95 34.95 34.95 34.94 34.94 34.94
7/18/2019 11:00 to 10:10 34.94 34.93 34.93 34.92 34.92 34.92
7/18/2019 10:00 to 9:10 34.92 34.92 34.91 34.91 34.91 34.91
7/18/2019 09:00 to 8:10 34.91 34.91 34.91 34.91 34.91 --
7/18/2019 08:00 to 7:10 34.90 34.90 34.90 34.90 34.90 34.90
7/18/2019 07:00 to 6:10 -- 34.90 34.90 34.90 34.90 34.90
7/18/2019 06:00 to 5:10 34.90 34.90 34.90 34.90 34.90 34.90
7/18/2019 05:00 to 4:10 34.90 34.90 34.90 34.90 34.90 34.90
7/18/2019 04:00 to 3:10 34.90 34.90 34.90 34.90 34.90 34.90
7/18/2019 03:00 to 2:10 34.90 34.90 34.89 34.89 34.89 34.88
7/18/2019 02:00 to 1:10 34.88 34.87 34.87 34.87 34.86 34.86
7/18/2019 01:00 to 0:10 34.86 34.86 34.86 34.85 34.85 34.85